createdAt,value
2023-02-17T00:01:23.570Z,8.02
2023-02-17T00:03:51.982Z,8.20
2023-02-17T00:06:22.060Z,9.25
2023-02-17T00:08:49.304Z,8.73
2023-02-17T00:11:17.237Z,7.85
2023-02-17T00:13:44.432Z,8.57
2023-02-17T00:16:18.045Z,7.65
2023-02-17T00:18:45.136Z,7.85
2023-02-17T00:21:21.578Z,8.13
2023-02-17T00:23:50.320Z,7.90
2023-02-17T00:26:18.661Z,8.77
2023-02-17T00:28:46.933Z,7.82
2023-02-17T00:31:18.673Z,8.10
2023-02-17T00:33:46.118Z,7.53
2023-02-17T00:36:19.712Z,8.18
2023-02-17T00:38:50.650Z,8.10
2023-02-17T00:41:18.573Z,8.40
2023-02-17T00:43:46.166Z,9.15
2023-02-17T00:46:13.484Z,8.43
2023-02-17T00:48:40.573Z,8.10
2023-02-17T00:51:07.493Z,8.40
2023-02-17T00:53:34.236Z,8.27
2023-02-17T00:56:00.978Z,7.68
2023-02-17T00:58:27.969Z,8.07
2023-02-17T01:00:58.700Z,8.25
2023-02-17T01:03:27.087Z,8.02
2023-02-17T01:05:55.154Z,8.05
2023-02-17T01:08:23.018Z,8.15
2023-02-17T01:10:50.846Z,7.95
2023-02-17T01:13:19.174Z,7.85
2023-02-17T01:15:50.337Z,7.68
2023-02-17T01:18:20.200Z,8.17
2023-02-17T01:20:47.026Z,7.82
2023-02-17T01:23:14.512Z,7.90
2023-02-17T01:25:44.581Z,8.23
2023-02-17T01:28:18.751Z,7.75
2023-02-17T01:30:45.532Z,7.43
2023-02-17T01:33:12.320Z,8.25
2023-02-17T01:35:39.034Z,8.18
2023-02-17T01:38:05.806Z,7.45
2023-02-17T01:40:33.534Z,8.48
2023-02-17T01:43:00.264Z,8.80
2023-02-17T01:45:34.759Z,7.93
2023-02-17T01:48:17.329Z,8.30
2023-02-17T01:51:30.012Z,8.70
2023-02-17T01:56:33.489Z,7.80
2023-02-17T01:59:12.937Z,7.53
2023-02-17T02:01:40.249Z,8.25
2023-02-17T02:04:08.508Z,8.00
2023-02-17T02:06:38.580Z,7.65
2023-02-17T02:09:12.378Z,7.53
2023-02-17T02:11:39.135Z,7.60
2023-02-17T02:14:08.534Z,7.95
2023-02-17T02:16:49.503Z,7.97
2023-02-17T02:19:54.615Z,8.65
2023-02-17T02:23:07.840Z,8.50
2023-02-17T02:26:25.052Z,8.10
2023-02-17T02:29:41.110Z,7.72
2023-02-17T02:32:48.467Z,8.32
2023-02-17T02:35:29.607Z,7.95
2023-02-17T02:38:22.237Z,7.70
2023-02-17T02:41:04.872Z,7.80
2023-02-17T02:43:32.460Z,8.23
2023-02-17T02:45:59.281Z,8.00
2023-02-17T02:48:27.452Z,8.02
2023-02-17T02:51:27.861Z,8.68
2023-02-17T02:54:18.033Z,8.20
2023-02-17T02:57:10.663Z,7.95
2023-02-17T03:00:05.530Z,8.82
2023-02-17T03:03:22.590Z,8.55
2023-02-17T03:06:13.539Z,8.88
2023-02-17T03:08:51.275Z,9.20
2023-02-17T03:11:32.142Z,8.68
2023-02-17T03:14:10.520Z,7.90
2023-02-17T03:16:39.590Z,8.35
2023-02-17T03:19:07.401Z,8.77
2023-02-17T03:22:00.180Z,8.18
2023-02-17T03:24:26.952Z,8.63
2023-02-17T03:26:53.713Z,8.50
2023-02-17T03:29:20.520Z,8.68
2023-02-17T03:31:47.356Z,8.38
2023-02-17T03:34:14.173Z,8.32
2023-02-17T03:36:40.895Z,8.52
2023-02-17T03:39:07.731Z,8.82
2023-02-17T03:41:34.672Z,8.68
2023-02-17T03:44:01.678Z,8.43
2023-02-17T03:46:28.406Z,9.25
2023-02-17T03:48:55.622Z,8.48
2023-02-17T03:51:25.014Z,9.00
2023-02-17T03:53:52.122Z,8.70
2023-02-17T03:56:19.654Z,8.52
2023-02-17T03:58:46.639Z,8.05
2023-02-17T04:01:14.351Z,9.00
2023-02-17T04:03:41.822Z,8.98
2023-02-17T04:06:10.286Z,8.48
2023-02-17T04:08:37.831Z,8.13
2023-02-17T04:11:06.561Z,7.93
2023-02-17T04:13:34.260Z,9.43
2023-02-17T04:16:01.448Z,9.05
2023-02-17T04:18:28.768Z,8.55
2023-02-17T04:20:55.530Z,8.43
2023-02-17T04:23:22.418Z,9.15
2023-02-17T04:25:49.549Z,8.57
2023-02-17T04:28:17.023Z,8.98
2023-02-17T04:30:49.115Z,8.82
2023-02-17T04:33:17.017Z,8.60
2023-02-17T04:35:43.942Z,7.63
2023-02-17T04:38:11.533Z,8.32
2023-02-17T04:40:38.821Z,8.30
2023-02-17T04:43:05.895Z,7.68
2023-02-17T04:45:34.590Z,7.85
2023-02-17T04:48:01.316Z,7.47
2023-02-17T04:50:28.731Z,7.45
2023-02-17T04:52:55.510Z,7.53
2023-02-17T04:55:22.240Z,7.20
2023-02-17T04:57:48.970Z,7.75
2023-02-17T05:00:15.949Z,7.88
2023-02-17T05:02:42.785Z,7.88
2023-02-17T05:05:09.589Z,7.82
2023-02-17T05:07:36.379Z,7.70
2023-02-17T05:10:03.353Z,7.30
2023-02-17T05:12:30.115Z,8.95
2023-02-17T05:14:56.826Z,8.73
2023-02-17T05:17:23.566Z,9.32
2023-02-17T05:19:50.281Z,8.55
2023-02-17T05:22:17.045Z,9.00
2023-02-17T05:24:43.784Z,10.13
2023-02-17T05:27:10.812Z,8.20
2023-02-17T05:29:37.543Z,8.05
2023-02-17T05:32:04.336Z,7.65
2023-02-17T05:34:31.204Z,8.13
2023-02-17T05:36:57.954Z,7.38
2023-02-17T06:02:34.653Z,6.35
2023-02-17T06:05:01.502Z,6.53
2023-02-17T06:07:28.307Z,7.30
2023-02-17T06:09:55.015Z,6.78
2023-02-17T06:12:21.737Z,6.68
2023-02-17T06:14:48.489Z,7.07
2023-02-17T06:17:15.237Z,6.82
2023-02-17T06:19:41.942Z,6.70
2023-02-17T06:22:08.744Z,6.53
2023-02-17T06:24:35.532Z,6.15
2023-02-17T06:27:02.432Z,6.57
2023-02-17T06:29:29.318Z,6.30
2023-02-17T06:31:56.159Z,6.38
2023-02-17T06:34:23.101Z,6.80
2023-02-17T06:36:49.893Z,6.32
2023-02-17T06:39:16.642Z,6.32
2023-02-17T06:41:43.431Z,6.50
2023-02-17T06:44:10.188Z,6.90
2023-02-17T06:46:36.927Z,6.03
2023-02-17T06:49:03.942Z,6.47
2023-02-17T06:51:30.772Z,6.50
2023-02-17T06:53:57.732Z,7.15
2023-02-17T06:56:24.660Z,7.10
2023-02-17T06:58:51.443Z,6.28
2023-02-17T07:01:26.140Z,6.85
2023-02-17T07:03:56.571Z,6.75
2023-02-17T07:06:24.991Z,7.00
2023-02-17T07:08:52.722Z,7.88
2023-02-17T07:11:20.356Z,7.95
2023-02-17T07:13:47.537Z,6.43
2023-02-17T07:16:15.623Z,6.28
2023-02-17T07:18:42.760Z,6.72
2023-02-17T07:21:10.147Z,6.80
2023-02-17T07:23:38.176Z,7.15
2023-02-17T07:26:08.499Z,6.88
2023-02-17T07:28:36.953Z,6.75
2023-02-17T07:31:09.817Z,6.57
2023-02-17T07:33:37.267Z,6.38
2023-02-17T07:36:15.039Z,6.82
2023-02-17T07:38:43.209Z,6.43
2023-02-17T07:41:14.886Z,6.53
2023-02-17T07:43:42.218Z,6.97
2023-02-17T07:46:10.160Z,7.05
2023-02-17T07:48:37.567Z,6.32
2023-02-17T07:51:11.768Z,6.40
2023-02-17T07:53:39.397Z,6.55
2023-02-17T07:56:10.879Z,6.38
2023-02-17T07:58:41.384Z,5.80
2023-02-17T08:01:08.627Z,5.63
2023-02-17T08:03:35.388Z,6.03
2023-02-17T08:06:02.490Z,5.82
2023-02-17T08:08:48.300Z,6.45
2023-02-17T08:11:35.390Z,6.25
2023-02-17T08:14:02.757Z,6.00
2023-02-17T08:16:29.553Z,5.53
2023-02-17T08:18:56.480Z,5.63
2023-02-17T08:21:24.827Z,6.13
2023-02-17T08:23:51.725Z,5.70
2023-02-17T08:26:19.731Z,5.90
2023-02-17T08:28:48.952Z,5.70
2023-02-17T08:31:30.919Z,6.20
2023-02-17T08:33:58.295Z,6.05
2023-02-17T08:36:25.196Z,5.88
2023-02-17T08:38:53.704Z,5.90
2023-02-17T08:41:30.050Z,5.30
2023-02-17T08:44:02.871Z,5.80
2023-02-17T08:46:30.883Z,5.55
2023-02-17T08:48:57.747Z,6.07
2023-02-17T08:51:26.161Z,6.03
2023-02-17T08:53:57.359Z,5.38
2023-02-17T08:56:26.244Z,5.22
2023-02-17T08:58:53.578Z,5.95
2023-02-17T09:01:21.214Z,5.78
2023-02-17T09:03:50.553Z,6.00
2023-02-17T09:06:18.852Z,5.68
2023-02-17T09:08:46.063Z,6.10
2023-02-17T09:11:15.300Z,6.35
2023-02-17T09:13:42.412Z,6.30
2023-02-17T09:16:09.640Z,6.78
2023-02-17T09:18:36.828Z,6.10
2023-02-17T09:21:13.208Z,6.18
2023-02-17T09:23:41.224Z,5.75
2023-02-17T09:26:11.990Z,5.93
2023-02-17T09:28:39.380Z,5.55
2023-02-17T09:31:19.970Z,6.07
2023-02-17T09:33:48.332Z,5.03
2023-02-17T09:36:19.604Z,5.53
2023-02-17T09:38:47.386Z,5.90
2023-02-17T09:41:42.695Z,5.60
2023-02-17T09:44:40.753Z,4.45
2023-02-17T09:47:44.117Z,5.30
2023-02-17T09:50:26.340Z,5.35
2023-02-17T09:53:07.945Z,4.70
2023-02-17T09:55:52.721Z,5.25
2023-02-17T09:58:37.334Z,4.45
2023-02-17T10:01:12.065Z,4.68
2023-02-17T10:03:59.906Z,4.90
2023-02-17T10:06:34.260Z,4.43
2023-02-17T10:09:24.339Z,4.50
2023-02-17T10:12:01.028Z,4.78
2023-02-17T10:14:37.870Z,4.88
2023-02-17T10:17:46.662Z,4.22
2023-02-17T10:20:24.449Z,4.07
2023-02-17T10:23:04.303Z,4.40
2023-02-17T10:26:13.972Z,3.90
2023-02-17T10:29:00.661Z,4.35
2023-02-17T10:31:47.392Z,4.28
2023-02-17T10:34:51.961Z,3.95
2023-02-17T10:37:31.162Z,4.03
2023-02-17T10:40:00.100Z,4.50
2023-02-17T10:42:30.049Z,3.72
2023-02-17T10:45:15.737Z,3.95
2023-02-17T10:47:42.932Z,4.45
2023-02-17T10:50:20.505Z,3.63
2023-02-17T10:52:48.767Z,4.18
2023-02-17T10:55:37.203Z,4.20
2023-02-17T10:58:29.906Z,3.95
2023-02-17T11:00:57.881Z,3.80
2023-02-17T11:03:29.536Z,3.67
2023-02-17T11:06:04.622Z,3.63
2023-02-17T11:08:52.201Z,4.03
2023-02-17T11:11:28.364Z,3.60
2023-02-17T11:14:21.027Z,3.83
2023-02-17T11:16:58.884Z,3.70
2023-02-17T11:19:35.318Z,3.70
2023-02-17T11:22:06.756Z,3.47
2023-02-17T11:24:35.816Z,3.60
2023-02-17T11:27:09.268Z,3.85
2023-02-17T11:29:36.279Z,3.88
2023-02-17T11:32:13.688Z,3.63
2023-02-17T11:34:43.972Z,3.33
2023-02-17T11:37:13.750Z,3.25
2023-02-17T11:39:44.599Z,3.67
2023-02-17T11:42:23.748Z,3.60
2023-02-17T11:44:52.310Z,4.20
2023-02-17T11:47:43.952Z,3.92
2023-02-17T11:50:54.509Z,3.47
2023-02-17T11:53:53.328Z,3.95
2023-02-17T11:56:26.652Z,3.78
2023-02-17T11:59:30.825Z,3.80
2023-02-17T12:02:18.795Z,3.63
2023-02-17T12:05:09.452Z,3.50
2023-02-17T12:07:50.207Z,3.63
2023-02-17T12:10:38.977Z,3.30
2023-02-17T12:14:01.525Z,3.47
2023-02-17T12:19:37.119Z,3.30
2023-02-17T12:22:25.088Z,3.30
2023-02-17T12:25:22.678Z,3.58
2023-02-17T12:28:16.718Z,3.30
2023-02-17T12:31:11.402Z,3.33
2023-02-17T12:33:53.738Z,2.97
2023-02-17T12:36:25.704Z,3.30
2023-02-17T12:39:01.471Z,3.00
2023-02-17T12:41:47.412Z,2.78
2023-02-17T12:44:18.824Z,2.88
2023-02-17T12:46:51.111Z,3.03
2023-02-17T12:49:30.041Z,2.50
2023-02-17T12:52:19.183Z,2.70
2023-02-17T12:55:11.949Z,2.40
2023-02-17T12:57:58.031Z,2.30
2023-02-17T13:00:41.187Z,2.45
2023-02-17T13:03:08.280Z,2.63
2023-02-17T13:05:47.457Z,2.42
2023-02-17T13:08:23.092Z,2.25
2023-02-17T13:11:28.497Z,2.17
2023-02-17T13:13:55.511Z,2.08
2023-02-17T13:16:23.055Z,2.47
2023-02-17T13:18:52.083Z,2.10
2023-02-17T13:21:28.631Z,1.80
2023-02-17T13:24:29.664Z,1.60
2023-02-17T13:26:56.423Z,1.60
2023-02-17T13:29:26.240Z,1.38
2023-02-17T13:32:02.066Z,1.73
2023-02-17T13:34:34.190Z,1.35
2023-02-17T13:39:47.798Z,1.30
2023-02-17T13:42:41.475Z,1.45
2023-02-17T13:45:25.285Z,1.48
2023-02-17T13:48:12.892Z,1.30
2023-02-17T13:50:45.629Z,1.63
2023-02-17T13:53:23.506Z,1.27
2023-02-17T13:55:51.041Z,1.52
2023-02-17T13:58:31.042Z,1.42
2023-02-17T14:01:00.521Z,1.60
2023-02-17T14:03:54.074Z,1.20
2023-02-17T14:06:30.837Z,1.65
2023-02-17T14:08:57.661Z,1.23
2023-02-17T14:11:28.800Z,1.40
2023-02-17T14:16:37.512Z,1.30
2023-02-17T14:19:08.258Z,1.40
2023-02-17T14:21:37.814Z,1.00
2023-02-17T14:24:05.252Z,1.00
2023-02-17T14:26:46.533Z,0.90
2023-02-17T14:29:14.663Z,1.00
2023-02-17T14:31:46.530Z,0.90
2023-02-17T14:34:32.750Z,0.90
2023-02-17T14:37:17.399Z,0.80
2023-02-17T14:39:44.265Z,0.90
2023-02-17T14:42:10.975Z,0.80
2023-02-17T14:44:37.702Z,0.85
2023-02-17T14:47:04.460Z,0.68
2023-02-17T14:49:31.182Z,0.98
2023-02-17T14:51:58.055Z,0.80
2023-02-17T14:54:26.814Z,0.80
2023-02-17T14:57:05.693Z,0.80
2023-02-17T14:59:32.885Z,0.75
2023-02-17T15:02:00.152Z,0.82
2023-02-17T15:04:27.009Z,1.02
2023-02-17T15:06:54.548Z,0.88
2023-02-17T15:09:30.004Z,1.08
2023-02-17T15:11:57.718Z,0.90
2023-02-17T15:14:24.658Z,0.90
2023-02-17T15:16:51.375Z,1.25
2023-02-17T15:19:18.161Z,1.05
2023-02-17T15:21:51.388Z,1.02
2023-02-17T15:24:27.274Z,1.58
2023-02-17T15:26:56.388Z,2.17
2023-02-17T15:29:27.213Z,1.35
2023-02-17T15:31:57.762Z,1.23
2023-02-17T15:34:32.479Z,2.95
2023-02-17T15:37:00.837Z,1.95
2023-02-17T15:39:28.047Z,5.63
2023-02-17T15:41:56.333Z,2.50
2023-02-17T15:44:26.732Z,3.00
2023-02-17T15:46:55.869Z,2.10
2023-02-17T15:49:23.169Z,2.00
2023-02-17T15:51:50.069Z,2.28
2023-02-17T15:54:19.158Z,1.48
2023-02-17T15:56:50.296Z,2.10
2023-02-17T15:59:23.980Z,2.00
2023-02-17T16:01:50.759Z,2.10
2023-02-17T16:04:17.919Z,2.47
2023-02-17T16:06:45.024Z,2.60
2023-02-17T16:09:11.848Z,2.30
2023-02-17T16:11:48.659Z,2.50
2023-02-17T16:14:27.520Z,2.10
2023-02-17T16:16:54.469Z,2.40
2023-02-17T16:19:21.775Z,2.53
2023-02-17T16:21:48.560Z,2.17
2023-02-17T16:24:15.310Z,2.33
2023-02-17T16:26:44.054Z,2.60
2023-02-17T16:29:21.424Z,2.55
2023-02-17T16:31:48.986Z,2.22
2023-02-17T16:34:20.808Z,2.45
2023-02-17T16:36:50.786Z,2.20
2023-02-17T16:39:20.261Z,2.20
2023-02-17T16:41:48.643Z,1.73
2023-02-17T16:44:17.988Z,1.92
2023-02-17T16:46:51.601Z,1.90
2023-02-17T16:49:31.768Z,1.75
2023-02-17T16:52:07.946Z,1.92
2023-02-17T16:54:35.809Z,2.10
2023-02-17T16:57:02.733Z,1.70
2023-02-17T16:59:29.766Z,1.60
2023-02-17T17:01:56.501Z,1.70
2023-02-17T17:04:23.400Z,1.88
2023-02-17T17:06:52.030Z,1.88
2023-02-17T17:09:22.657Z,2.88
2023-02-17T17:11:50.352Z,2.92
2023-02-17T17:14:17.274Z,2.13
2023-02-17T17:16:51.597Z,2.80
2023-02-17T17:19:18.512Z,2.30
2023-02-17T17:21:45.236Z,2.35
2023-02-17T17:24:11.954Z,1.92
2023-02-17T17:26:46.081Z,2.17
2023-02-17T17:29:15.404Z,2.22
2023-02-17T17:31:42.877Z,2.35
2023-02-17T17:34:09.693Z,2.10
2023-02-17T17:36:41.487Z,2.45
2023-02-17T17:39:22.488Z,2.75
2023-02-17T17:41:50.921Z,2.83
2023-02-17T17:44:18.869Z,2.60
2023-02-17T17:46:45.696Z,2.38
2023-02-17T17:49:14.305Z,2.28
2023-02-17T17:51:41.779Z,2.67
2023-02-17T17:54:08.728Z,2.63
2023-02-17T17:56:39.100Z,3.22
2023-02-17T17:59:07.024Z,3.53
2023-02-17T18:01:34.299Z,2.92
2023-02-17T18:04:01.466Z,3.38
2023-02-17T18:06:40.545Z,3.30
2023-02-17T18:09:15.150Z,3.88
2023-02-17T18:11:52.755Z,3.50
2023-02-17T18:14:20.057Z,3.40
2023-02-17T18:16:48.527Z,3.45
2023-02-17T18:19:17.498Z,3.13
2023-02-17T18:21:44.418Z,3.78
2023-02-17T18:24:11.442Z,3.88
2023-02-17T18:26:38.216Z,4.50
2023-02-17T18:29:05.158Z,4.18
2023-02-17T18:31:32.064Z,4.03
2023-02-17T18:33:58.889Z,4.18
2023-02-17T18:36:27.181Z,4.22
2023-02-17T18:38:54.476Z,4.38
2023-02-17T18:41:26.629Z,4.47
2023-02-17T18:43:54.096Z,4.18
2023-02-17T18:46:20.850Z,4.50
2023-02-17T18:48:47.804Z,4.53
2023-02-17T18:51:17.305Z,4.47
2023-02-17T18:53:44.025Z,4.88
2023-02-17T18:56:21.529Z,4.93
2023-02-17T18:58:50.945Z,4.07
2023-02-17T19:01:34.677Z,4.82
2023-02-17T19:04:01.468Z,4.53
2023-02-17T19:06:34.192Z,5.22
2023-02-17T19:09:01.457Z,5.50
2023-02-17T19:11:28.195Z,5.10
2023-02-17T19:13:54.975Z,5.30
2023-02-17T19:16:25.944Z,6.28
2023-02-17T19:18:52.946Z,5.90
2023-02-17T19:21:20.821Z,5.70
2023-02-17T19:23:49.211Z,5.80
2023-02-17T19:26:17.608Z,6.03
2023-02-17T19:28:45.452Z,5.53
2023-02-17T19:31:16.581Z,6.20
2023-02-17T19:33:45.557Z,6.00
2023-02-17T19:36:16.499Z,6.22
2023-02-17T19:38:43.622Z,6.22
2023-02-17T19:41:12.071Z,6.10
2023-02-17T19:43:40.471Z,6.60
2023-02-17T19:46:07.741Z,6.63
2023-02-17T19:48:34.653Z,6.55
2023-02-17T19:51:06.069Z,7.07
2023-02-17T19:53:33.945Z,6.15
2023-02-17T19:56:18.435Z,6.63
2023-02-17T19:58:46.695Z,7.05
2023-02-17T20:01:29.828Z,6.68
2023-02-17T20:03:58.575Z,7.18
2023-02-17T20:06:38.173Z,7.28
2023-02-17T20:09:09.261Z,6.90
2023-02-17T20:11:36.604Z,7.27
2023-02-17T20:14:03.573Z,7.22
2023-02-17T20:16:30.959Z,8.00
2023-02-17T20:19:00.304Z,7.57
2023-02-17T20:21:29.548Z,7.35
2023-02-17T20:23:57.465Z,7.10
2023-02-17T20:26:29.378Z,6.95
2023-02-17T20:31:24.099Z,7.20
2023-02-17T20:33:51.301Z,7.60
2023-02-17T20:36:18.466Z,7.53
2023-02-17T20:38:45.630Z,7.50
2023-02-17T20:41:19.163Z,7.03
2023-02-17T20:43:46.341Z,7.15
2023-02-17T20:46:25.953Z,7.47
2023-02-17T20:48:54.060Z,7.88
2023-02-17T20:51:21.486Z,7.43
2023-02-17T20:53:48.519Z,7.80
2023-02-17T20:56:19.832Z,8.75
2023-02-17T20:58:47.628Z,7.38
2023-02-17T21:01:14.521Z,7.63
2023-02-17T21:03:41.430Z,8.30
2023-02-17T21:06:31.483Z,8.32
2023-02-17T21:09:02.771Z,7.50
2023-02-17T21:11:29.999Z,8.45
2023-02-17T21:13:56.728Z,7.82
2023-02-17T21:16:27.872Z,7.20
2023-02-17T21:18:54.694Z,7.68
2023-02-17T21:21:21.500Z,7.43
2023-02-17T21:23:48.501Z,7.10
2023-02-17T21:26:15.967Z,7.30
2023-02-17T21:28:43.443Z,7.00
2023-02-17T21:31:10.765Z,6.85
2023-02-17T21:33:41.869Z,6.88
2023-02-17T21:36:11.935Z,7.00
2023-02-17T21:38:39.078Z,7.55
2023-02-17T21:41:15.298Z,8.00
2023-02-17T21:44:01.487Z,8.02
2023-02-17T21:46:30.187Z,7.38
2023-02-17T21:48:59.562Z,7.95
2023-02-17T21:51:27.424Z,7.60
2023-02-17T21:53:54.357Z,7.53
2023-02-17T21:56:23.389Z,7.15
2023-02-17T21:58:53.708Z,8.57
2023-02-17T22:01:22.784Z,7.97
2023-02-17T22:03:49.950Z,8.15
2023-02-17T22:06:25.606Z,8.30
2023-02-17T22:08:53.339Z,8.80
2023-02-17T22:11:29.731Z,8.32
2023-02-17T22:13:59.473Z,8.80
2023-02-17T22:16:26.808Z,8.13
2023-02-17T22:18:53.575Z,8.38
2023-02-17T22:21:20.310Z,7.25
2023-02-17T22:23:47.664Z,8.20
2023-02-17T22:26:20.061Z,9.40
2023-02-17T22:28:47.413Z,9.13
2023-02-17T22:31:18.614Z,10.45
2023-02-17T22:33:45.690Z,8.35
2023-02-17T22:36:17.007Z,9.05
2023-02-17T22:38:44.368Z,9.23
2023-02-17T22:41:17.411Z,9.75
2023-02-17T22:43:46.953Z,9.07
2023-02-17T22:46:17.989Z,9.00
2023-02-17T22:48:49.089Z,8.87
2023-02-17T22:51:22.494Z,9.13
2023-02-17T22:53:49.969Z,9.50
2023-02-17T22:56:16.973Z,9.68
2023-02-17T22:58:43.696Z,9.77
2023-02-17T23:01:18.207Z,9.65
2023-02-17T23:03:45.402Z,9.88
2023-02-17T23:06:17.960Z,9.63
2023-02-17T23:08:46.099Z,9.90
2023-02-17T23:11:15.597Z,9.20
2023-02-17T23:13:43.087Z,8.93
2023-02-17T23:16:11.410Z,10.00
2023-02-17T23:18:38.332Z,10.27
2023-02-17T23:21:11.625Z,10.30
2023-02-17T23:23:38.604Z,10.27
2023-02-17T23:26:06.399Z,9.20
2023-02-17T23:28:33.439Z,9.10
2023-02-17T23:31:00.204Z,9.80
2023-02-17T23:33:27.101Z,10.65
2023-02-17T23:35:53.849Z,9.57
2023-02-17T23:38:21.622Z,8.93
2023-02-17T23:40:50.724Z,9.23
2023-02-17T23:43:18.460Z,9.45
2023-02-17T23:45:45.295Z,10.02
2023-02-17T23:48:12.748Z,9.93
2023-02-17T23:50:39.583Z,10.07
2023-02-17T23:53:06.771Z,9.77
2023-02-17T23:55:33.891Z,10.85
2023-02-17T23:58:01.072Z,10.00
